Time;durP1;ratioP1;P1;durP2;ratioP2;P2;SDS_P1;SDS_P2;PMS_P1;PMS_P2;Temp;Humidity;BMP_temperature;BMP_pressure;BME280_temperature;BME280_humidity;BME280_pressure;Samples;Min_cycle;Max_cycle;Signal;HPM_P1;HPM_P2
2021/08/09 00:00:16;;;;;;;9.85;4.13;;;14.80;99.90;;;;;;5074814;28;20036;-72
2021/08/09 00:02:42;;;;;;;14.50;4.82;;;14.80;99.90;;;;;;5066279;28;20050;-72
2021/08/09 00:05:09;;;;;;;14.77;4.43;;;14.80;99.90;;;;;;5077667;28;20036;-72
2021/08/09 00:07:35;;;;;;;11.85;4.50;;;14.80;99.90;;;;;;5076823;28;21063;-72
2021/08/09 00:10:00;;;;;;;10.38;3.90;;;14.90;99.90;;;;;;5077427;28;20119;-70
2021/08/09 00:12:26;;;;;;;10.68;4.15;;;14.80;99.90;;;;;;5077975;28;20032;-71
2021/08/09 00:14:52;;;;;;;10.38;4.57;;;14.80;99.90;;;;;;5072846;28;20039;-72
2021/08/09 00:17:18;;;;;;;12.48;4.18;;;14.90;99.90;;;;;;5080512;28;20881;-72
2021/08/09 00:19:44;;;;;;;12.30;5.25;;;14.90;99.90;;;;;;5065489;28;20044;-72
2021/08/09 00:22:10;;;;;;;13.50;5.10;;;14.90;99.90;;;;;;5082283;28;20036;-73
2021/08/09 00:24:36;;;;;;;10.32;4.07;;;14.90;99.90;;;;;;5048362;28;20272;-72
2021/08/09 00:27:02;;;;;;;11.70;4.82;;;14.90;99.90;;;;;;5057085;28;20475;-73
2021/08/09 00:29:28;;;;;;;11.02;4.93;;;14.90;99.90;;;;;;5072963;28;20028;-73
2021/08/09 00:31:53;;;;;;;12.35;4.47;;;14.90;99.90;;;;;;5066595;28;20063;-72
2021/08/09 00:34:19;;;;;;;10.90;4.40;;;14.90;99.90;;;;;;5072628;28;20071;-73
2021/08/09 00:36:46;;;;;;;12.73;4.65;;;14.90;99.90;;;;;;5074544;28;20048;-73
2021/08/09 00:39:15;;;;;;;11.73;4.38;;;14.90;99.90;;;;;;5061840;28;20067;-73
2021/08/09 00:41:41;;;;;;;12.10;4.47;;;15.00;99.90;;;;;;5079843;28;20111;-73
2021/08/09 00:44:07;;;;;;;8.85;3.78;;;14.90;99.90;;;;;;5072946;28;20051;-73
2021/08/09 00:46:36;;;;;;;11.80;4.25;;;15.00;99.90;;;;;;5076664;28;20442;-73
2021/08/09 00:49:02;;;;;;;9.10;4.20;;;15.00;99.90;;;;;;5075966;28;20047;-71
2021/08/09 00:51:29;;;;;;;9.82;4.30;;;15.00;99.90;;;;;;5072071;28;20039;-71
2021/08/09 00:53:55;;;;;;;12.23;4.75;;;15.00;99.90;;;;;;5074525;28;20036;-71
2021/08/09 00:56:21;;;;;;;7.97;4.50;;;15.00;99.90;;;;;;5064033;28;20048;-72
2021/08/09 00:58:47;;;;;;;13.55;5.10;;;15.00;99.90;;;;;;5076781;28;20521;-71
2021/08/09 01:01:13;;;;;;;9.10;4.15;;;15.00;99.90;;;;;;5076192;28;20037;-71
2021/08/09 01:03:39;;;;;;;12.38;4.57;;;15.00;99.90;;;;;;5077020;28;20089;-72
2021/08/09 01:06:05;;;;;;;15.13;4.40;;;15.10;99.90;;;;;;5076757;28;20471;-71
2021/08/09 01:09:09;;;;;;;15.13;5.47;;;15.10;99.90;;;;;;5070258;28;20051;-71
2021/08/09 01:11:46;;;;;;;7.88;4.10;;;15.10;99.90;;;;;;5076699;28;20098;-72
2021/08/09 01:14:40;;;;;;;12.85;4.68;;;15.00;99.90;;;;;;5066173;28;20126;-73
2021/08/09 01:17:10;;;;;;;13.55;4.43;;;15.10;99.90;;;;;;5082741;28;20036;-72
2021/08/09 01:19:40;;;;;;;11.65;4.53;;;15.10;99.90;;;;;;5073000;28;20522;-72
2021/08/09 01:22:21;;;;;;;14.68;4.43;;;15.10;99.90;;;;;;5076933;28;20123;-73
2021/08/09 01:25:02;;;;;;;10.95;4.65;;;15.10;99.90;;;;;;5074168;28;20040;-73
2021/08/09 01:27:30;;;;;;;9.63;4.35;;;15.10;99.90;;;;;;5071370;28;20041;-73
2021/08/09 01:30:03;;;;;;;10.50;4.88;;;15.10;99.90;;;;;;5059880;28;20465;-73
2021/08/09 01:32:31;;;;;;;11.50;4.40;;;15.10;99.90;;;;;;5068989;28;20140;-72
2021/08/09 01:34:58;;;;;;;12.68;4.47;;;15.10;99.90;;;;;;5077538;28;20048;-73
2021/08/09 01:37:27;;;;;;;11.20;4.88;;;15.10;99.90;;;;;;5077237;28;20068;-72
2021/08/09 01:39:53;;;;;;;10.45;4.43;;;15.00;99.90;;;;;;5071733;28;20036;-72
2021/08/09 01:42:20;;;;;;;15.63;5.35;;;15.00;99.90;;;;;;5070783;28;20547;-72
2021/08/09 01:44:47;;;;;;;10.98;4.38;;;15.00;99.90;;;;;;5074822;28;20039;-72
2021/08/09 01:47:14;;;;;;;14.48;4.40;;;15.00;99.90;;;;;;5067660;28;20089;-73
2021/08/09 01:49:40;;;;;;;15.85;4.63;;;15.00;99.90;;;;;;5081238;28;20040;-72
2021/08/09 01:52:08;;;;;;;10.43;4.57;;;15.00;99.90;;;;;;5074824;28;20036;-73
2021/08/09 01:54:35;;;;;;;11.75;5.18;;;15.00;99.90;;;;;;5071303;28;20506;-72
2021/08/09 01:57:02;;;;;;;11.50;5.20;;;15.00;99.90;;;;;;5069351;28;20633;-72
2021/08/09 01:59:28;;;;;;;12.68;4.63;;;15.00;99.90;;;;;;5073146;28;20165;-73
2021/08/09 02:01:54;;;;;;;13.52;4.38;;;15.00;99.90;;;;;;5076452;28;20041;-72
2021/08/09 02:04:20;;;;;;;12.73;4.22;;;15.00;99.90;;;;;;5078397;28;20043;-73
2021/08/09 02:06:46;;;;;;;17.15;4.88;;;15.00;99.90;;;;;;5061658;28;20043;-72
2021/08/09 02:09:12;;;;;;;18.60;4.95;;;15.00;99.90;;;;;;5079893;28;20032;-72
2021/08/09 02:11:59;;;;;;;14.23;5.05;;;14.90;99.90;;;;;;5062158;28;20720;-73
2021/08/09 02:14:28;;;;;;;13.75;4.88;;;14.90;99.90;;;;;;5082828;28;20036;-71
2021/08/09 02:17:05;;;;;;;9.63;4.38;;;14.80;99.90;;;;;;5072529;28;20499;-73
2021/08/09 02:19:59;;;;;;;12.18;5.13;;;14.80;99.90;;;;;;5080262;28;20036;-72
2021/08/09 02:22:31;;;;;;;13.70;5.25;;;14.70;99.90;;;;;;5077519;28;20406;-71
2021/08/09 02:25:06;;;;;;;12.85;4.93;;;14.60;99.90;;;;;;5081205;28;20429;-72
2021/08/09 02:27:42;;;;;;;15.02;5.45;;;14.60;99.90;;;;;;5074099;28;20046;-72
2021/08/09 02:30:16;;;;;;;13.68;5.00;;;14.50;99.90;;;;;;5083987;28;20043;-72
2021/08/09 02:32:44;;;;;;;11.85;4.85;;;14.50;99.90;;;;;;5082078;28;20044;-72
2021/08/09 02:35:15;;;;;;;14.13;5.32;;;14.40;99.90;;;;;;5079927;28;20113;-72
2021/08/09 02:37:42;;;;;;;11.93;5.63;;;14.40;99.90;;;;;;5084312;28;20044;-73
2021/08/09 02:40:13;;;;;;;10.73;4.97;;;14.40;99.90;;;;;;5071341;28;20068;-72
2021/08/09 02:42:39;;;;;;;;;;;14.30;99.90;;;;;;5085070;28;20040;-72
2021/08/09 02:45:10;;;;;;;17.52;5.90;;;14.30;99.90;;;;;;5070169;28;20367;-72
2021/08/09 02:47:38;;;;;;;15.65;6.03;;;14.20;99.90;;;;;;5062509;28;20044;-73
2021/08/09 02:50:10;;;;;;;12.10;5.25;;;14.20;99.90;;;;;;5075173;28;20044;-72
2021/08/09 02:52:41;;;;;;;14.68;4.90;;;14.20;99.90;;;;;;5072254;28;20051;-72
2021/08/09 02:55:09;;;;;;;;;;;14.20;99.90;;;;;;5076835;28;20662;-72
2021/08/09 02:57:36;;;;;;;12.65;5.30;;;14.10;99.90;;;;;;5071024;28;19926;-72
2021/08/09 03:00:04;;;;;;;15.85;5.50;;;14.10;99.90;;;;;;5077317;28;20040;-72
2021/08/09 03:02:36;;;;;;;15.48;5.82;;;14.00;99.90;;;;;;5058630;28;20115;-73
2021/08/09 03:05:07;;;;;;;11.35;5.45;;;14.00;99.90;;;;;;5073144;28;20041;-73
2021/08/09 03:07:37;;;;;;;16.95;5.82;;;14.00;99.90;;;;;;5076857;28;20118;-72
2021/08/09 03:10:08;;;;;;;14.27;5.65;;;14.00;99.90;;;;;;5073312;28;20398;-72
2021/08/09 03:12:34;;;;;;;14.18;6.38;;;14.00;99.90;;;;;;5075108;28;20505;-72
2021/08/09 03:15:02;;;;;;;15.60;6.10;;;14.00;99.90;;;;;;5068724;28;20040;-73
2021/08/09 03:17:28;;;;;;;20.67;5.57;;;14.00;99.90;;;;;;5067953;28;20060;-72
2021/08/09 03:19:54;;;;;;;15.60;5.95;;;14.00;99.90;;;;;;5080586;28;20128;-73
2021/08/09 03:22:20;;;;;;;16.08;5.57;;;14.00;99.90;;;;;;5074464;28;20188;-71
2021/08/09 03:24:46;;;;;;;16.02;5.53;;;14.00;99.90;;;;;;5069820;28;20028;-72
2021/08/09 03:27:12;;;;;;;14.07;5.82;;;13.90;99.90;;;;;;5078852;28;20043;-73
2021/08/09 03:29:41;;;;;;;18.85;6.03;;;14.00;99.90;;;;;;5076731;28;20695;-73
2021/08/09 03:32:07;;;;;;;16.85;5.80;;;13.90;99.90;;;;;;5069979;28;20059;-72
2021/08/09 03:34:36;;;;;;;18.08;6.35;;;13.90;99.90;;;;;;5072789;28;20574;-72
2021/08/09 03:37:02;;;;;;;15.75;6.13;;;13.90;99.90;;;;;;5065961;28;20540;-72
2021/08/09 03:39:28;;;;;;;19.63;6.40;;;14.00;99.90;;;;;;5078962;28;20040;-71
2021/08/09 03:41:53;;;;;;;19.55;6.47;;;14.00;99.90;;;;;;5066444;28;20162;-72
2021/08/09 03:44:20;;;;;;;14.73;5.38;;;13.90;99.90;;;;;;5064530;28;20514;-72
2021/08/09 03:46:45;;;;;;;15.35;5.93;;;14.00;99.90;;;;;;5075891;28;20101;-72
2021/08/09 03:49:11;;;;;;;15.75;5.80;;;14.00;99.90;;;;;;5078814;28;20487;-73
2021/08/09 03:51:41;;;;;;;15.00;5.97;;;14.00;99.90;;;;;;5074574;28;21100;-73
2021/08/09 03:54:08;;;;;;;11.95;5.70;;;14.00;99.90;;;;;;5054504;28;20068;-72
2021/08/09 03:56:35;;;;;;;14.00;5.93;;;14.00;99.90;;;;;;5072376;28;20054;-71
2021/08/09 03:59:04;;;;;;;18.40;6.07;;;13.90;99.90;;;;;;5075727;28;20044;-72
2021/08/09 04:01:30;;;;;;;12.63;5.38;;;13.90;99.90;;;;;;5078582;28;20506;-72
2021/08/09 04:03:56;;;;;;;21.38;6.28;;;13.90;99.90;;;;;;5077396;28;20040;-71
2021/08/09 04:06:22;;;;;;;17.98;5.82;;;13.90;99.90;;;;;;5079178;28;20090;-73
2021/08/09 04:08:49;;;;;;;16.63;6.03;;;13.90;99.90;;;;;;5053910;28;20040;-72
2021/08/09 04:11:16;;;;;;;15.13;6.25;;;13.90;99.90;;;;;;5084213;28;20672;-72
2021/08/09 04:13:42;;;;;;;14.43;5.55;;;13.80;99.90;;;;;;5074015;28;20066;-73
2021/08/09 04:16:11;;;;;;;18.80;6.00;;;13.90;99.90;;;;;;5059307;28;20305;-73
2021/08/09 04:18:38;;;;;;;14.43;6.00;;;13.90;99.90;;;;;;5078516;28;20041;-73
2021/08/09 04:21:05;;;;;;;14.18;5.53;;;13.90;99.90;;;;;;5070577;28;20056;-73
2021/08/09 04:23:31;;;;;;;16.55;5.82;;;13.90;99.90;;;;;;5073116;28;20039;-71
2021/08/09 04:25:57;;;;;;;16.63;5.38;;;13.90;99.90;;;;;;5080005;28;20040;-72
2021/08/09 04:28:23;;;;;;;15.60;5.85;;;13.90;99.90;;;;;;5083430;28;20513;-72
2021/08/09 04:30:49;;;;;;;18.83;6.70;;;13.90;99.90;;;;;;5079124;28;20062;-72
2021/08/09 04:33:15;;;;;;;13.95;6.32;;;13.90;99.90;;;;;;5078042;28;20085;-72
2021/08/09 04:35:41;;;;;;;17.27;6.70;;;13.90;99.90;;;;;;5079900;28;20064;-72
2021/08/09 04:38:07;;;;;;;15.07;6.22;;;13.90;99.90;;;;;;5085021;28;20059;-72
2021/08/09 04:40:33;;;;;;;16.05;6.05;;;13.90;99.90;;;;;;5080606;28;20520;-72
2021/08/09 04:42:59;;;;;;;14.77;6.28;;;13.90;99.90;;;;;;5070609;28;20119;-73
2021/08/09 04:45:25;;;;;;;16.63;5.93;;;13.90;99.90;;;;;;5080753;28;20072;-73
2021/08/09 04:47:52;;;;;;;12.98;5.97;;;13.90;99.90;;;;;;5057890;28;20083;-71
2021/08/09 04:50:18;;;;;;;16.90;5.90;;;13.90;99.90;;;;;;5075879;28;20043;-71
2021/08/09 04:52:44;;;;;;;16.05;5.68;;;13.90;99.90;;;;;;5075989;28;20047;-73
2021/08/09 04:55:11;;;;;;;14.48;5.93;;;13.90;99.90;;;;;;5086379;28;20036;-72
2021/08/09 04:57:37;;;;;;;11.75;5.80;;;13.90;99.90;;;;;;5076396;28;20051;-73
2021/08/09 05:00:05;;;;;;;16.23;5.75;;;13.90;99.90;;;;;;5081370;28;20436;-72
2021/08/09 05:02:31;;;;;;;13.32;6.03;;;14.00;99.90;;;;;;5079411;28;20041;-72
2021/08/09 05:04:59;;;;;;;17.48;7.50;;;14.00;99.90;;;;;;5076985;28;20081;-72
2021/08/09 05:07:25;;;;;;;16.52;6.70;;;14.00;99.90;;;;;;5085692;28;20036;-72
2021/08/09 05:09:50;;;;;;;19.17;7.25;;;14.00;99.90;;;;;;5086448;28;20051;-71
2021/08/09 05:12:16;;;;;;;15.48;6.03;;;14.00;99.90;;;;;;5082177;28;20045;-73
2021/08/09 05:14:42;;;;;;;16.17;6.60;;;14.00;99.90;;;;;;5084630;28;20742;-73
2021/08/09 05:17:09;;;;;;;18.17;6.70;;;14.00;99.90;;;;;;5074155;28;20050;-73
2021/08/09 05:19:36;;;;;;;18.55;6.30;;;14.10;99.90;;;;;;5080541;28;20128;-73
2021/08/09 05:22:03;;;;;;;14.68;5.93;;;14.10;99.90;;;;;;5060953;28;20553;-73
2021/08/09 05:24:40;;;;;;;18.23;6.03;;;14.10;99.90;;;;;;5071132;28;20067;-72
2021/08/09 05:27:06;;;;;;;18.13;6.45;;;14.10;99.90;;;;;;5065591;28;20135;-73
2021/08/09 05:29:32;;;;;;;15.95;6.05;;;14.10;99.90;;;;;;5071582;28;20111;-73
2021/08/09 05:31:59;;;;;;;14.10;6.40;;;14.10;99.90;;;;;;5082110;28;20155;-71
2021/08/09 05:34:25;;;;;;;19.80;6.47;;;14.20;99.90;;;;;;5084839;28;20044;-72
2021/08/09 05:36:51;;;;;;;18.73;6.15;;;14.20;99.90;;;;;;5083481;28;20047;-72
2021/08/09 05:39:22;;;;;;;13.82;5.63;;;14.20;99.90;;;;;;5080465;28;20032;-72
2021/08/09 05:41:48;;;;;;;14.15;6.03;;;14.20;99.90;;;;;;5075011;28;20097;-71
2021/08/09 05:44:14;;;;;;;15.60;5.88;;;14.20;99.90;;;;;;5082758;28;20109;-73
2021/08/09 05:46:43;;;;;;;18.25;5.80;;;14.20;99.90;;;;;;5049615;28;20487;-71
2021/08/09 05:49:19;;;;;;;14.70;6.18;;;14.20;99.90;;;;;;5082489;28;20120;-72
2021/08/09 05:51:47;;;;;;;13.27;5.93;;;14.20;99.90;;;;;;5078486;28;20370;-73
2021/08/09 05:54:13;;;;;;;15.15;6.28;;;14.30;99.90;;;;;;5074148;28;20147;-72
2021/08/09 05:56:40;;;;;;;18.60;6.18;;;14.30;99.90;;;;;;5082203;28;20040;-73
2021/08/09 05:59:06;;;;;;;13.32;5.72;;;14.30;99.90;;;;;;5078294;28;20689;-72
2021/08/09 06:01:32;;;;;;;15.50;5.80;;;14.30;99.90;;;;;;5065647;28;20040;-72
2021/08/09 06:03:58;;;;;;;19.08;5.78;;;14.40;99.90;;;;;;5083485;28;20040;-73
2021/08/09 06:06:24;;;;;;;14.25;5.50;;;14.40;99.90;;;;;;5079592;28;20150;-73
2021/08/09 06:08:50;;;;;;;16.23;5.88;;;14.40;99.90;;;;;;5082731;28;20048;-73
2021/08/09 06:11:17;;;;;;;17.42;5.68;;;14.40;99.90;;;;;;5086685;28;20036;-73
2021/08/09 06:13:43;;;;;;;13.52;6.15;;;14.40;99.90;;;;;;5080749;28;20052;-73
2021/08/09 06:16:10;;;;;;;14.35;5.43;;;14.50;99.90;;;;;;5068472;28;20036;-73
2021/08/09 06:18:36;;;;;;;15.13;6.40;;;14.50;99.90;;;;;;5067000;28;20044;-72
2021/08/09 06:21:03;;;;;;;20.48;6.40;;;14.60;99.90;;;;;;5082447;28;20052;-73
2021/08/09 06:23:29;;;;;;;17.90;5.75;;;14.60;99.90;;;;;;5084237;28;20075;-73
2021/08/09 06:25:55;;;;;;;18.40;6.20;;;14.60;99.90;;;;;;5080645;28;20040;-73
2021/08/09 06:28:25;;;;;;;15.52;6.00;;;14.60;99.90;;;;;;5087098;28;20043;-72
2021/08/09 06:30:51;;;;;;;13.70;5.33;;;14.70;99.90;;;;;;5066245;28;20502;-73
2021/08/09 06:33:18;;;;;;;13.25;5.80;;;14.70;99.90;;;;;;5048866;28;20332;-72
2021/08/09 06:35:44;;;;;;;16.30;4.97;;;14.80;99.90;;;;;;5078800;28;20040;-71
2021/08/09 06:38:10;;;;;;;15.00;5.18;;;14.90;99.90;;;;;;5046490;28;20646;-71
2021/08/09 06:40:36;;;;;;;17.50;6.03;;;15.00;99.90;;;;;;5067177;28;20037;-71
2021/08/09 06:43:03;;;;;;;13.93;5.88;;;15.10;99.90;;;;;;5064791;28;20029;-72
2021/08/09 06:45:30;;;;;;;18.42;6.15;;;15.10;99.90;;;;;;5086585;28;20036;-73
2021/08/09 06:47:56;;;;;;;17.00;5.70;;;15.30;99.90;;;;;;5081763;28;20070;-72
2021/08/09 06:50:22;;;;;;;14.88;4.97;;;15.30;99.90;;;;;;5076222;28;20044;-72
2021/08/09 06:52:48;;;;;;;20.27;5.90;;;15.30;99.90;;;;;;5043376;28;20117;-71
2021/08/09 06:55:14;;;;;;;15.38;6.00;;;15.40;99.90;;;;;;5081690;28;20669;-72
2021/08/09 06:57:40;;;;;;;14.90;5.30;;;15.50;99.90;;;;;;5078777;28;20044;-71
2021/08/09 07:00:07;;;;;;;19.27;5.95;;;15.60;99.90;;;;;;5076868;28;20042;-73
2021/08/09 07:02:36;;;;;;;16.27;5.35;;;15.80;99.90;;;;;;5084012;28;20044;-72
2021/08/09 07:05:02;;;;;;;17.85;5.15;;;15.90;99.90;;;;;;5075298;28;20468;-72
2021/08/09 07:07:28;;;;;;;20.30;5.15;;;16.00;99.90;;;;;;5085456;28;20039;-73
2021/08/09 07:09:54;;;;;;;17.23;5.88;;;16.00;99.90;;;;;;5074051;28;20048;-73
2021/08/09 07:12:20;;;;;;;15.85;5.47;;;16.00;99.90;;;;;;5081314;28;20122;-72
2021/08/09 07:14:46;;;;;;;14.07;5.10;;;15.90;99.90;;;;;;5074290;28;20040;-74
2021/08/09 07:17:12;;;;;;;15.55;4.97;;;15.90;99.90;;;;;;5070359;28;20044;-72
2021/08/09 07:19:39;;;;;;;17.85;5.50;;;15.90;99.90;;;;;;5087058;28;20563;-73
2021/08/09 07:22:06;;;;;;;15.07;5.32;;;15.90;99.90;;;;;;5083120;28;20671;-74
2021/08/09 07:24:35;;;;;;;12.02;4.90;;;15.90;99.90;;;;;;5085259;28;20502;-71
2021/08/09 07:27:01;;;;;;;16.40;5.25;;;16.00;99.90;;;;;;5073752;28;20113;-71
2021/08/09 07:29:29;;;;;;;15.55;5.45;;;16.00;99.90;;;;;;5064854;28;20784;-72
2021/08/09 07:31:54;;;;;;;19.15;5.55;;;16.10;99.90;;;;;;5084429;28;20137;-72
2021/08/09 07:34:20;;;;;;;13.57;4.65;;;16.10;99.90;;;;;;5082152;28;20486;-72
2021/08/09 07:36:47;;;;;;;17.88;5.95;;;16.10;99.90;;;;;;5082972;28;20052;-73
2021/08/09 07:39:13;;;;;;;12.57;5.40;;;16.10;99.90;;;;;;5071997;28;20064;-73
2021/08/09 07:41:39;;;;;;;14.55;5.95;;;16.20;99.90;;;;;;5078322;28;20071;-74
2021/08/09 07:44:05;;;;;;;17.90;5.53;;;16.20;99.90;;;;;;5083721;28;20491;-72
2021/08/09 07:46:31;;;;;;;16.52;5.30;;;16.20;99.90;;;;;;5077133;28;20044;-74
2021/08/09 07:48:57;;;;;;;16.85;5.10;;;16.20;99.90;;;;;;5066380;28;20097;-73
2021/08/09 07:51:23;;;;;;;13.73;5.13;;;16.30;99.90;;;;;;5085770;28;20109;-72
2021/08/09 07:53:49;;;;;;;14.52;5.28;;;16.30;99.90;;;;;;5077717;28;20047;-72
2021/08/09 07:56:15;;;;;;;15.88;5.30;;;16.30;99.90;;;;;;5079387;28;20043;-72
2021/08/09 07:58:41;;;;;;;16.08;5.03;;;16.30;99.90;;;;;;5079132;28;20139;-73
2021/08/09 08:01:08;;;;;;;20.58;4.97;;;16.30;99.90;;;;;;5086651;28;20727;-72
2021/08/09 08:03:36;;;;;;;16.13;5.18;;;16.30;99.90;;;;;;5084496;28;20047;-72
2021/08/09 08:06:02;;;;;;;17.02;4.70;;;16.40;99.90;;;;;;5077860;28;20114;-72
2021/08/09 08:08:37;;;;;;;13.52;5.03;;;16.40;99.90;;;;;;5065961;28;20240;-72
2021/08/09 08:11:03;;;;;;;14.73;4.70;;;16.50;99.90;;;;;;5074275;28;20111;-73
2021/08/09 08:13:29;;;;;;;13.57;4.53;;;16.50;99.90;;;;;;5079239;28;20122;-74
2021/08/09 08:15:55;;;;;;;16.08;4.53;;;16.60;99.90;;;;;;5067100;28;20048;-72
2021/08/09 08:18:21;;;;;;;15.55;4.70;;;16.60;99.90;;;;;;5071155;28;20036;-72
2021/08/09 08:20:47;;;;;;;13.18;4.70;;;16.70;99.90;;;;;;5071890;28;20043;-72
2021/08/09 08:23:13;;;;;;;13.75;4.70;;;16.70;99.90;;;;;;5071566;28;20090;-72
2021/08/09 08:25:39;;;;;;;16.42;4.70;;;16.80;99.90;;;;;;5067154;28;20045;-73
2021/08/09 08:28:05;;;;;;;13.75;4.72;;;16.80;99.90;;;;;;5074884;28;20040;-72
2021/08/09 08:30:36;;;;;;;17.00;4.70;;;16.80;99.90;;;;;;5072918;28;20046;-73
2021/08/09 08:33:02;;;;;;;13.02;4.78;;;16.90;99.90;;;;;;5076264;28;20518;-73
2021/08/09 08:35:28;;;;;;;13.95;4.72;;;17.00;99.90;;;;;;5079924;28;20051;-72
2021/08/09 08:37:54;;;;;;;11.38;4.32;;;17.00;99.90;;;;;;5059182;28;20040;-73
2021/08/09 08:40:20;;;;;;;16.00;4.22;;;17.10;99.90;;;;;;5075655;28;20491;-72
2021/08/09 08:42:47;;;;;;;13.82;4.60;;;17.20;99.60;;;;;;5066826;28;20051;-72
2021/08/09 08:45:18;;;;;;;13.35;4.65;;;17.30;99.30;;;;;;5071597;28;20040;-72
2021/08/09 08:47:47;;;;;;;11.50;4.28;;;17.40;98.60;;;;;;5071218;28;20483;-72
2021/08/09 08:50:17;;;;;;;16.77;4.40;;;17.40;98.30;;;;;;5072371;28;20036;-71
2021/08/09 08:52:49;;;;;;;14.15;4.22;;;17.60;98.50;;;;;;5070555;28;20037;-73
2021/08/09 08:55:16;;;;;;;11.93;4.25;;;17.70;98.10;;;;;;5061283;28;20093;-72
2021/08/09 08:57:45;;;;;;;16.50;4.15;;;17.90;97.70;;;;;;5057795;28;20507;-73
2021/08/09 09:00:13;;;;;;;13.68;4.25;;;17.90;96.90;;;;;;5078646;28;20124;-72
2021/08/09 09:02:40;;;;;;;11.23;4.18;;;17.90;96.90;;;;;;5082932;28;20065;-73
2021/08/09 09:05:10;;;;;;;13.77;4.22;;;18.00;96.90;;;;;;5068293;28;20045;-71
2021/08/09 09:07:41;;;;;;;10.70;4.40;;;17.90;96.70;;;;;;5076028;28;20491;-72
2021/08/09 09:10:25;;;;;;;15.02;4.45;;;18.00;97.00;;;;;;5072430;28;20456;-73
2021/08/09 09:13:14;;;;;;;11.82;4.03;;;18.10;96.70;;;;;;5091586;28;20040;-73
2021/08/09 09:16:07;;;;;;;9.70;4.10;;;18.20;96.20;;;;;;5073237;28;20525;-72
2021/08/09 09:18:54;;;;;;;12.80;3.78;;;18.40;96.40;;;;;;5077274;28;20067;-73
2021/08/09 09:21:29;;;;;;;12.88;3.17;;;18.70;96.10;;;;;;5078526;28;20052;-73
2021/08/09 09:24:07;;;;;;;10.40;3.50;;;19.00;95.90;;;;;;5069769;28;20532;-72
2021/08/09 09:26:34;;;;;;;8.27;3.03;;;19.30;95.80;;;;;;5077574;28;20070;-72
2021/08/09 09:29:09;;;;;;;7.28;2.53;;;19.50;94.20;;;;;;5076530;28;20047;-72
2021/08/09 09:31:35;;;;;;;7.65;2.15;;;19.60;93.70;;;;;;5070539;28;20052;-73
2021/08/09 09:34:08;;;;;;;9.55;2.47;;;19.80;93.50;;;;;;5075110;28;20059;-71
2021/08/09 09:36:58;;;;;;;7.35;2.22;;;19.90;93.30;;;;;;5072100;28;20747;-74
2021/08/09 09:39:27;;;;;;;6.85;2.60;;;20.00;92.40;;;;;;5074710;28;20563;-72
2021/08/09 09:41:53;;;;;;;8.25;2.15;;;20.10;91.50;;;;;;5079160;28;20559;-72
2021/08/09 09:44:24;;;;;;;12.20;2.78;;;20.20;90.90;;;;;;5076168;28;20036;-72
2021/08/09 09:46:50;;;;;;;10.05;2.00;;;20.30;90.70;;;;;;5073058;28;20036;-72
2021/08/09 09:49:48;;;;;;;7.45;2.10;;;20.30;91.10;;;;;;5080695;28;20035;-73
2021/08/09 09:52:33;;;;;;;8.10;2.33;;;20.40;90.50;;;;;;5075211;28;20136;-73
2021/08/09 09:55:07;;;;;;;8.75;2.58;;;20.40;90.50;;;;;;5071378;28;20040;-73
2021/08/09 09:57:34;;;;;;;7.10;2.45;;;20.50;90.10;;;;;;5073125;28;20044;-73
2021/08/09 10:00:01;;;;;;;6.25;2.10;;;20.50;90.60;;;;;;5073711;28;20605;-73
2021/08/09 10:02:27;;;;;;;6.07;1.77;;;20.60;90.30;;;;;;5076016;28;20040;-73
2021/08/09 10:04:54;;;;;;;7.10;1.92;;;20.70;90.10;;;;;;5074377;28;20470;-73
2021/08/09 10:07:25;;;;;;;6.78;2.00;;;20.60;90.30;;;;;;5073864;28;20090;-73
2021/08/09 10:09:54;;;;;;;7.72;2.15;;;20.50;90.20;;;;;;5072261;28;20090;-73
2021/08/09 10:12:24;;;;;;;5.15;1.98;;;20.30;90.40;;;;;;5074604;28;20127;-73
2021/08/09 10:14:53;;;;;;;9.57;1.90;;;20.30;89.70;;;;;;5072956;28;20040;-72
2021/08/09 10:17:30;;;;;;;8.93;2.10;;;20.10;89.20;;;;;;5057466;28;20048;-73
2021/08/09 10:20:01;;;;;;;6.10;1.90;;;20.00;88.30;;;;;;5079120;28;20101;-74
2021/08/09 10:22:30;;;;;;;5.70;1.92;;;20.00;90.20;;;;;;5069495;28;20048;-74
2021/08/09 10:24:57;;;;;;;5.10;1.47;;;20.20;90.40;;;;;;5072465;28;20078;-73
2021/08/09 10:27:47;;;;;;;6.93;1.77;;;20.50;89.10;;;;;;5074495;28;20044;-74
2021/08/09 10:30:15;;;;;;;6.45;1.67;;;20.60;87.40;;;;;;5075006;28;20052;-72
2021/08/09 10:32:53;;;;;;;5.70;2.70;;;20.50;86.20;;;;;;5069614;28;20427;-72
2021/08/09 10:35:34;;;;;;;5.53;1.52;;;20.30;86.80;;;;;;5074140;28;20082;-73
2021/08/09 10:38:19;;;;;;;5.18;1.58;;;20.00;88.20;;;;;;5073242;28;20040;-72
2021/08/09 10:40:47;;;;;;;3.90;1.25;;;19.80;88.10;;;;;;5073602;28;20048;-74
2021/08/09 10:43:13;;;;;;;5.05;1.35;;;19.70;88.90;;;;;;5071509;28;20044;-73
2021/08/09 10:45:40;;;;;;;4.80;1.10;;;19.50;89.10;;;;;;5076438;28;20465;-73
2021/08/09 10:48:09;;;;;;;3.83;1.08;;;19.40;89.10;;;;;;5079001;28;20085;-73
2021/08/09 10:50:44;;;;;;;3.28;1.30;;;19.30;89.60;;;;;;5070093;28;20452;-73
2021/08/09 10:53:25;;;;;;;4.97;1.30;;;19.20;89.60;;;;;;5073095;28;20123;-74
2021/08/09 10:55:53;;;;;;;2.47;1.02;;;19.20;90.30;;;;;;5068509;28;20093;-72
2021/08/09 10:58:41;;;;;;;3.47;1.25;;;19.20;90.60;;;;;;5076004;28;20061;-72
2021/08/09 11:01:17;;;;;;;7.13;1.58;;;19.20;91.00;;;;;;5073627;28;20093;-73
2021/08/09 11:04:02;;;;;;;3.95;1.40;;;19.20;91.30;;;;;;5074069;28;20050;-71
2021/08/09 11:06:55;;;;;;;5.15;1.30;;;19.30;91.30;;;;;;5069641;28;20502;-74
2021/08/09 11:09:33;;;;;;;5.32;1.52;;;19.30;91.40;;;;;;5075546;28;20071;-73
2021/08/09 11:12:26;;;;;;;6.88;1.50;;;19.30;91.20;;;;;;5071633;28;20071;-73
2021/08/09 11:15:04;;;;;;;5.32;1.45;;;19.20;91.40;;;;;;5074662;28;20032;-73
2021/08/09 11:17:51;;;;;;;4.78;1.85;;;19.10;91.80;;;;;;5078886;28;20086;-74
2021/08/09 11:20:25;;;;;;;8.63;2.00;;;19.10;92.10;;;;;;5070714;28;20052;-73
2021/08/09 11:23:12;;;;;;;5.32;2.17;;;19.00;91.80;;;;;;5070749;28;20048;-72
2021/08/09 11:25:48;;;;;;;4.38;1.67;;;19.00;91.90;;;;;;5071209;28;20028;-74
2021/08/09 11:28:21;;;;;;;6.90;2.80;;;19.00;92.10;;;;;;5072255;28;20048;-75
2021/08/09 11:30:53;;;;;;;7.25;2.45;;;19.10;92.30;;;;;;5073635;28;20044;-74
2021/08/09 11:33:25;;;;;;;5.60;2.10;;;19.20;92.40;;;;;;5075773;28;20056;-74
2021/08/09 11:35:52;;;;;;;5.88;2.00;;;19.40;92.50;;;;;;5081340;28;20044;-74
2021/08/09 11:38:19;;;;;;;6.22;1.80;;;19.60;92.90;;;;;;5077291;28;20028;-74
2021/08/09 11:40:47;;;;;;;5.70;1.77;;;19.80;92.10;;;;;;5077657;28;20391;-74
2021/08/09 11:43:20;;;;;;;12.13;2.95;;;19.90;91.90;;;;;;5068655;28;20036;-74
2021/08/09 11:45:46;;;;;;;6.65;2.45;;;20.10;91.50;;;;;;5069275;28;20116;-75
2021/08/09 11:48:13;;;;;;;6.43;1.88;;;20.40;91.50;;;;;;5075785;28;20112;-75
2021/08/09 11:50:42;;;;;;;8.13;1.92;;;20.60;91.10;;;;;;5073270;28;20526;-74
2021/08/09 11:53:16;;;;;;;5.93;2.28;;;20.70;91.10;;;;;;5045622;28;20107;-72
2021/08/09 11:55:42;;;;;;;7.65;1.55;;;20.70;90.80;;;;;;5071115;28;20091;-72
2021/08/09 11:58:11;;;;;;;7.18;2.10;;;20.60;90.00;;;;;;5078616;28;20515;-73
2021/08/09 12:00:41;;;;;;;5.55;1.65;;;20.40;90.10;;;;;;5073224;28;20044;-74
2021/08/09 12:03:08;;;;;;;6.90;2.40;;;20.40;90.50;;;;;;5073600;28;20038;-73
2021/08/09 12:05:36;;;;;;;5.47;2.03;;;20.40;90.00;;;;;;5070279;28;20132;-73
2021/08/09 12:08:06;;;;;;;3.60;1.70;;;20.40;89.50;;;;;;5076436;28;20041;-73
2021/08/09 12:10:37;;;;;;;6.10;1.80;;;20.40;89.70;;;;;;5075728;28;20044;-73
2021/08/09 12:13:04;;;;;;;5.43;2.28;;;20.40;90.10;;;;;;5071384;28;20040;-73
2021/08/09 12:15:30;;;;;;;5.93;1.95;;;20.50;90.00;;;;;;5046217;28;20046;-73
2021/08/09 12:18:08;;;;;;;6.65;2.10;;;20.50;90.00;;;;;;5075465;28;20032;-73
2021/08/09 12:20:37;;;;;;;8.05;2.28;;;20.50;90.20;;;;;;5072740;28;21081;-72
2021/08/09 12:23:23;;;;;;;5.95;2.40;;;20.50;89.60;;;;;;5078437;28;20043;-73
2021/08/09 12:25:50;;;;;;;8.50;3.20;;;20.50;88.90;;;;;;5082330;28;20750;-73
2021/08/09 12:28:28;;;;;;;6.93;2.70;;;20.40;89.90;;;;;;5070274;28;20082;-74
2021/08/09 12:30:54;;;;;;;7.72;2.60;;;20.40;90.00;;;;;;5074365;28;20490;-74
2021/08/09 12:33:20;;;;;;;6.22;2.28;;;20.40;90.60;;;;;;5070135;28;20059;-74
2021/08/09 12:35:47;;;;;;;7.18;2.70;;;20.50;90.50;;;;;;5071566;28;20094;-75
2021/08/09 12:38:15;;;;;;;5.50;2.03;;;20.60;90.00;;;;;;5075969;28;20082;-75
2021/08/09 12:40:46;;;;;;;6.40;2.17;;;20.70;90.10;;;;;;5078902;28;20500;-75
2021/08/09 12:43:14;;;;;;;6.65;2.35;;;20.80;89.90;;;;;;5072742;28;20535;-72
2021/08/09 12:45:42;;;;;;;7.15;2.30;;;21.00;90.20;;;;;;5071273;28;20036;-73
2021/08/09 12:48:09;;;;;;;7.47;2.15;;;21.10;88.90;;;;;;5074270;28;20032;-73
2021/08/09 12:50:38;;;;;;;4.47;2.00;;;21.20;88.20;;;;;;5069883;28;20037;-75